createdAt,value
2016-11-10T00:00:48.048Z,46.91
2016-11-10T00:01:57.071Z,47.3
2016-11-10T00:03:05.767Z,46.81
2016-11-10T00:04:15.066Z,46.91
2016-11-10T00:05:24.069Z,47.1
2016-11-10T00:06:33.100Z,47.58
2016-11-10T00:07:42.100Z,47.49
2016-11-10T00:08:50.794Z,47.27
2016-11-10T00:09:59.790Z,47.58
2016-11-10T00:11:08.795Z,47.27
2016-11-10T00:12:18.099Z,47.3
2016-11-10T00:13:26.788Z,47.49
2016-11-10T00:14:35.788Z,47.01
2016-11-10T00:15:44.784Z,47.1
2016-11-10T00:16:54.090Z,47.1
2016-11-10T00:18:03.398Z,47.2
2016-11-10T00:19:13.325Z,47.3
2016-11-10T00:20:22.006Z,47.01
2016-11-10T00:21:31.363Z,47.01
2016-11-10T00:22:40.976Z,47.3
2016-11-10T00:23:50.321Z,47.01
2016-11-10T00:24:59.019Z,46.91
2016-11-10T00:26:08.625Z,47.2
2016-11-10T00:27:17.952Z,47.46
2016-11-10T00:28:26.682Z,47.56
2016-11-10T00:29:35.677Z,47.37
2016-11-10T00:30:44.387Z,47.37
2016-11-10T00:31:53.726Z,47.37
2016-11-10T00:33:02.422Z,46.98
2016-11-10T00:34:11.157Z,46.91
2016-11-10T00:35:19.862Z,47.1
2016-11-10T00:36:29.166Z,46.81
2016-11-10T00:37:37.861Z,47.01
2016-11-10T00:38:46.565Z,46.98
2016-11-10T00:39:55.892Z,47.1
2016-11-10T00:41:05.207Z,46.81
2016-11-10T00:42:13.924Z,47.01
2016-11-10T00:43:23.556Z,47.01
2016-11-10T00:44:33.177Z,46.89
2016-11-10T00:45:42.498Z,47.08
2016-11-10T00:46:51.184Z,47.08
2016-11-10T00:48:00.490Z,47.39
2016-11-10T00:49:09.183Z,47.2
2016-11-10T00:50:18.485Z,46.91
2016-11-10T00:51:27.218Z,47.46
2016-11-10T00:52:35.910Z,46.98
2016-11-10T00:53:44.915Z,47.08
2016-11-10T00:54:54.210Z,47.27
2016-11-10T00:56:03.225Z,47.17
2016-11-10T00:57:12.536Z,47.27
2016-11-10T00:58:21.842Z,46.89
2016-11-10T00:59:31.150Z,47.17
2016-11-10T01:00:40.142Z,47.08
2016-11-10T01:01:49.135Z,46.89
2016-11-10T01:02:57.832Z,46.98
2016-11-10T01:04:06.828Z,47.17
2016-11-10T01:05:15.851Z,47.17
2016-11-10T01:06:24.844Z,47.08
2016-11-10T01:07:34.142Z,47.17
2016-11-10T01:08:43.452Z,47.1
2016-11-10T01:09:52.493Z,47.17
2016-11-10T01:11:01.801Z,47.2
2016-11-10T01:12:11.127Z,47.08
2016-11-10T01:13:19.839Z,46.98
2016-11-10T01:14:28.835Z,46.89
2016-11-10T01:15:37.528Z,47.08
2016-11-10T01:16:46.546Z,47.08
2016-11-10T01:17:55.856Z,47.27
2016-11-10T01:19:04.549Z,47.08
2016-11-10T01:20:13.587Z,46.81
2016-11-10T01:21:22.381Z,46.98
2016-11-10T01:22:31.077Z,46.79
2016-11-10T01:23:40.085Z,46.89
2016-11-10T01:24:49.121Z,47.08
2016-11-10T01:25:58.147Z,46.79
2016-11-10T01:27:07.180Z,46.81
2016-11-10T01:28:15.879Z,46.98
2016-11-10T01:29:25.189Z,46.89
2016-11-10T01:30:34.192Z,47.17
2016-11-10T01:31:42.882Z,46.91
2016-11-10T01:32:52.215Z,47.08
2016-11-10T01:34:01.515Z,46.98
2016-11-10T01:35:10.517Z,46.98
2016-11-10T01:36:19.823Z,46.89
2016-11-10T01:37:28.832Z,46.79
2016-11-10T01:38:37.892Z,47.01
2016-11-10T01:39:46.586Z,47.01
2016-11-10T01:40:56.185Z,46.98
2016-11-10T01:42:05.486Z,47.01
2016-11-10T01:43:14.481Z,46.79
2016-11-10T01:44:23.481Z,46.98
2016-11-10T01:45:32.183Z,46.79
2016-11-10T01:46:41.170Z,46.79
2016-11-10T01:47:50.159Z,46.89
2016-11-10T01:49:00.085Z,46.98
2016-11-10T01:50:08.781Z,46.98
2016-11-10T01:51:18.096Z,46.7
2016-11-10T01:52:27.097Z,46.89
2016-11-10T01:53:35.791Z,47.08
2016-11-10T01:54:45.407Z,47.1
2016-11-10T01:55:54.102Z,47.08
2016-11-10T01:57:02.788Z,47.08
2016-11-10T01:58:11.789Z,47.17
2016-11-10T01:59:20.785Z,47.08
2016-11-10T02:00:29.821Z,46.79
2016-11-10T02:01:39.127Z,46.79
2016-11-10T02:02:48.424Z,46.89
2016-11-10T02:03:57.735Z,46.79
2016-11-10T02:05:06.761Z,46.98
2016-11-10T02:06:16.064Z,47.08
2016-11-10T02:07:24.752Z,47.08
2016-11-10T02:08:34.068Z,46.98
2016-11-10T02:09:42.780Z,46.79
2016-11-10T02:10:52.092Z,46.89
2016-11-10T02:12:01.088Z,46.72
2016-11-10T02:13:09.783Z,47.01
2016-11-10T02:14:19.090Z,46.98
2016-11-10T02:15:28.081Z,46.91
2016-11-10T02:16:37.084Z,46.89
2016-11-10T02:17:46.086Z,46.79
2016-11-10T02:18:55.386Z,46.79
2016-11-10T02:20:04.383Z,47.17
2016-11-10T02:21:13.685Z,46.98
2016-11-10T02:22:22.376Z,47.17
2016-11-10T02:23:31.396Z,46.41
2016-11-10T02:24:40.716Z,47.08
2016-11-10T02:25:49.726Z,46.98
2016-11-10T02:26:58.743Z,46.98
2016-11-10T02:28:08.043Z,47.27
2016-11-10T02:29:16.730Z,46.31
2016-11-10T02:30:26.034Z,46.89
2016-11-10T02:31:34.721Z,46.89
2016-11-10T02:32:43.718Z,47.08
2016-11-10T02:33:52.724Z,46.98
2016-11-10T02:35:01.730Z,46.79
2016-11-10T02:36:11.025Z,46.5
2016-11-10T02:37:20.027Z,46.41
2016-11-10T02:38:29.024Z,46.98
2016-11-10T02:39:37.711Z,46.89
2016-11-10T02:40:46.751Z,47.17
2016-11-10T02:41:55.445Z,46.5
2016-11-10T02:43:04.752Z,46.89
2016-11-10T02:44:14.091Z,46.98
2016-11-10T02:45:23.759Z,46.79
2016-11-10T02:46:32.457Z,46.31
2016-11-10T02:47:41.451Z,46.79
2016-11-10T02:48:51.067Z,46.89
2016-11-10T02:50:00.061Z,46.41
2016-11-10T02:51:09.106Z,47.17
2016-11-10T02:52:18.249Z,46.12
2016-11-10T02:53:27.296Z,46.89
2016-11-10T02:54:37.313Z,46.41
2016-11-10T02:55:46.475Z,46.5
2016-11-10T02:56:56.504Z,46.41
2016-11-10T02:58:05.915Z,46.98
2016-11-10T02:59:15.254Z,47.08
2016-11-10T03:00:24.408Z,46.5
2016-11-10T03:01:34.021Z,46.31
2016-11-10T03:02:43.362Z,46.5
2016-11-10T03:03:52.773Z,46.5
2016-11-10T03:05:01.776Z,46.5
2016-11-10T03:06:11.090Z,46.41
2016-11-10T03:07:19.781Z,46.5
2016-11-10T03:08:28.781Z,46.12
2016-11-10T03:09:37.482Z,46.5
2016-11-10T03:10:47.100Z,46.41
2016-11-10T03:11:55.795Z,46.31
2016-11-10T03:13:04.798Z,46.5
2016-11-10T03:14:13.493Z,46.5
2016-11-10T03:15:22.491Z,46.31
2016-11-10T03:16:31.277Z,46.31
2016-11-10T03:17:40.341Z,46.12
2016-11-10T03:18:50.041Z,46.31
2016-11-10T03:19:59.054Z,46.22
2016-11-10T03:21:08.054Z,46.41
2016-11-10T03:22:17.547Z,46.31
2016-11-10T03:23:27.496Z,46.12
2016-11-10T03:24:36.704Z,46.41
2016-11-10T03:25:46.395Z,46.03
2016-11-10T03:26:55.590Z,46.22
2016-11-10T03:28:04.293Z,46.22
2016-11-10T03:29:13.800Z,46.22
2016-11-10T03:30:22.745Z,46.22
2016-11-10T03:31:31.759Z,46.31
2016-11-10T03:32:40.456Z,46.12
2016-11-10T03:33:49.462Z,46.12
2016-11-10T03:34:58.761Z,46.31
2016-11-10T03:36:08.370Z,46.31
2016-11-10T03:37:17.353Z,46.12
2016-11-10T03:38:26.364Z,46.31
2016-11-10T03:39:36.294Z,46.31
2016-11-10T03:40:45.288Z,46.14
2016-11-10T03:41:53.977Z,46.31
2016-11-10T03:43:02.669Z,46.12
2016-11-10T03:44:11.981Z,46.31
2016-11-10T03:45:21.299Z,46.41
2016-11-10T03:46:30.302Z,46.12
2016-11-10T03:47:39.293Z,46.03
2016-11-10T03:48:48.600Z,46.41
2016-11-10T03:49:57.596Z,46.03
2016-11-10T03:51:06.601Z,46.5
2016-11-10T03:52:15.308Z,46.03
2016-11-10T03:53:23.999Z,46.31
2016-11-10T03:54:32.759Z,46.03
2016-11-10T03:55:41.759Z,46.22
2016-11-10T03:56:50.475Z,46.12
2016-11-10T03:57:59.786Z,46.12
2016-11-10T03:59:09.097Z,46.89
2016-11-10T04:00:17.805Z,46.03
2016-11-10T04:01:26.535Z,46.31
2016-11-10T04:02:35.237Z,46.31
2016-11-10T04:03:44.269Z,45.54
2016-11-10T04:04:53.169Z,45.54
2016-11-10T04:06:01.917Z,45.36
2016-11-10T04:07:10.930Z,44.68
2016-11-10T04:08:19.625Z,44.32
2016-11-10T04:09:28.626Z,44.01
2016-11-10T04:10:37.966Z,44.2
2016-11-10T04:11:47.263Z,43.82
2016-11-10T04:12:56.263Z,43.73
2016-11-10T04:14:05.270Z,43.24
2016-11-10T04:15:13.970Z,43.34
2016-11-10T04:16:23.292Z,43.36
2016-11-10T04:17:32.289Z,43.36
2016-11-10T04:18:41.308Z,43.24
2016-11-10T04:19:50.305Z,42.67
2016-11-10T04:20:59.614Z,42.77
2016-11-10T04:22:08.925Z,42.67
2016-11-10T04:23:17.649Z,42.88
2016-11-10T04:24:26.361Z,42.96
2016-11-10T04:25:35.687Z,42.67
2016-11-10T04:26:44.694Z,42.47
2016-11-10T04:27:54.008Z,42.47
2016-11-10T04:29:02.695Z,42
2016-11-10T04:30:11.691Z,42
2016-11-10T04:31:20.994Z,42.19
2016-11-10T04:32:29.994Z,42.1
2016-11-10T04:33:38.986Z,41.71
2016-11-10T04:34:48.289Z,42
2016-11-10T04:35:57.617Z,42.1
2016-11-10T04:37:06.609Z,41.8
2016-11-10T04:38:15.624Z,41.9
2016-11-10T04:39:24.627Z,41.8
2016-11-10T04:40:33.941Z,41.71
2016-11-10T04:41:42.947Z,41.8
2016-11-10T04:42:52.253Z,41.71
2016-11-10T04:44:01.250Z,41.9
2016-11-10T04:45:10.254Z,41.9
2016-11-10T04:46:18.957Z,41.8
2016-11-10T04:47:28.264Z,41.61
2016-11-10T04:48:36.970Z,41.52
2016-11-10T04:49:46.299Z,41.52
2016-11-10T04:50:55.011Z,41.52
2016-11-10T04:52:03.714Z,41.42
2016-11-10T04:53:13.023Z,41.71
2016-11-10T04:54:22.328Z,41.42
2016-11-10T04:55:31.336Z,41.71
2016-11-10T04:56:40.637Z,41.71
2016-11-10T04:57:49.634Z,41.61
2016-11-10T04:58:58.335Z,41.61
2016-11-10T05:00:07.324Z,41.61
2016-11-10T05:01:16.025Z,41.71
2016-11-10T05:02:24.723Z,41.8
2016-11-10T05:03:33.733Z,41.61
2016-11-10T05:04:42.724Z,41.61
2016-11-10T05:05:51.411Z,41.42
2016-11-10T05:07:00.412Z,41.33
2016-11-10T05:08:09.423Z,41.42
2016-11-10T05:09:18.734Z,41.61
2016-11-10T05:10:27.450Z,41.61
2016-11-10T05:11:36.773Z,41.42
2016-11-10T05:12:45.520Z,41.61
2016-11-10T05:13:54.237Z,41.42
2016-11-10T05:15:03.248Z,41.61
2016-11-10T05:16:12.266Z,41.52
2016-11-10T05:17:21.272Z,41.42
2016-11-10T05:18:30.611Z,41.42
2016-11-10T05:19:39.658Z,41.42
2016-11-10T05:20:48.964Z,41.52
2016-11-10T05:21:58.583Z,41.61
2016-11-10T05:23:08.199Z,41.42
2016-11-10T05:24:17.510Z,41.71
2016-11-10T05:25:26.517Z,41.52
2016-11-10T05:26:35.230Z,41.42
2016-11-10T05:27:44.853Z,41.71
2016-11-10T05:28:53.564Z,41.8
2016-11-10T05:30:02.572Z,41.52
2016-11-10T05:31:11.262Z,41.61
2016-11-10T05:32:20.267Z,41.52
2016-11-10T05:33:28.976Z,41.52
2016-11-10T05:34:37.668Z,41.52
2016-11-10T05:35:46.674Z,41.33
2016-11-10T05:36:55.672Z,41.44
2016-11-10T05:38:04.353Z,41.44
2016-11-10T05:39:13.648Z,41.35
2016-11-10T05:40:22.644Z,40.96
2016-11-10T05:41:31.356Z,41.35
2016-11-10T05:42:40.353Z,41.08
2016-11-10T05:43:49.647Z,40.96
2016-11-10T05:44:58.962Z,41.06
2016-11-10T05:46:07.679Z,40.79
2016-11-10T05:47:16.377Z,40.89
2016-11-10T05:48:25.385Z,40.89
2016-11-10T05:49:34.107Z,40.79
2016-11-10T05:50:43.113Z,40.79
2016-11-10T05:51:52.427Z,40.7
2016-11-10T05:53:01.117Z,40.81
2016-11-10T05:54:10.139Z,40.72
2016-11-10T05:55:19.136Z,40.72
2016-11-10T05:56:28.135Z,40.33
2016-11-10T05:57:36.827Z,40.43
2016-11-10T05:58:45.520Z,40.81
2016-11-10T05:59:54.532Z,40.72
2016-11-10T06:01:03.532Z,40.81
2016-11-10T06:02:12.246Z,40.72
2016-11-10T06:03:21.548Z,41
2016-11-10T06:04:30.858Z,40.81
2016-11-10T06:05:39.852Z,41
2016-11-10T06:06:48.549Z,40.81
2016-11-10T06:07:57.860Z,40.83
2016-11-10T06:09:06.862Z,40.81
2016-11-10T06:10:15.560Z,40.83
2016-11-10T06:11:24.587Z,40.83
2016-11-10T06:12:33.594Z,40.64
2016-11-10T06:13:43.206Z,40.64
2016-11-10T06:14:52.199Z,40.93
2016-11-10T06:16:01.514Z,41.12
2016-11-10T06:17:11.192Z,41.12
2016-11-10T06:18:20.188Z,41.41
2016-11-10T06:19:29.180Z,41.72
2016-11-10T06:20:38.191Z,41.79
2016-11-10T06:21:46.887Z,41.41
2016-11-10T06:22:55.618Z,41.72
2016-11-10T06:24:04.919Z,41.91
2016-11-10T06:25:14.223Z,41.62
2016-11-10T06:26:23.223Z,41.53
2016-11-10T06:27:32.228Z,41.62
2016-11-10T06:28:40.915Z,41.53
2016-11-10T06:29:50.538Z,41.83
2016-11-10T06:30:59.848Z,41.43
2016-11-10T06:32:08.879Z,41.82
2016-11-10T06:33:17.913Z,41.83
2016-11-10T06:34:27.280Z,41.93
2016-11-10T06:35:36.642Z,42.22
2016-11-10T06:36:45.688Z,42.03
2016-11-10T06:37:54.775Z,41.83
2016-11-10T06:39:04.119Z,42.41
2016-11-10T06:40:13.441Z,42.32
2016-11-10T06:41:22.447Z,42.22
2016-11-10T06:42:31.175Z,41.83
2016-11-10T06:43:40.828Z,42.41
2016-11-10T06:44:49.834Z,42.12
2016-11-10T06:45:58.525Z,42.32
2016-11-10T06:47:07.525Z,42.12
2016-11-10T06:48:16.514Z,42.05
2016-11-10T06:49:25.515Z,42.05
2016-11-10T06:50:34.524Z,45.7
2016-11-10T06:51:43.543Z,42.82
2016-11-10T06:52:52.229Z,42.53
2016-11-10T06:54:00.925Z,42.72
2016-11-10T06:55:10.834Z,42.53
2016-11-10T06:56:20.147Z,42.43
2016-11-10T06:57:29.153Z,42.32
2016-11-10T06:58:37.839Z,42.03
2016-11-10T06:59:46.537Z,42.22
2016-11-10T07:00:55.267Z,41.83
2016-11-10T07:02:03.974Z,42.12
2016-11-10T07:03:12.678Z,41.74
2016-11-10T07:04:21.668Z,41.74
2016-11-10T07:05:30.984Z,41.45
2016-11-10T07:06:40.597Z,40.97
2016-11-10T07:07:49.280Z,40.88
2016-11-10T07:08:58.282Z,40.78
2016-11-10T07:10:06.986Z,40.68
2016-11-10T07:11:15.704Z,40.97
2016-11-10T07:12:24.695Z,40.95
2016-11-10T07:13:33.708Z,41.05
2016-11-10T07:14:42.694Z,41.93
2016-11-10T07:15:51.706Z,41.82
2016-11-10T07:17:00.717Z,41.53
2016-11-10T07:18:09.421Z,42.49
2016-11-10T07:19:19.755Z,42.49
2016-11-10T07:20:31.400Z,42.2
2016-11-10T07:21:41.672Z,42
2016-11-10T07:22:50.980Z,42.39
2016-11-10T07:24:00.320Z,42.39
2016-11-10T07:25:09.318Z,42.39
2016-11-10T07:26:18.018Z,42.2
2016-11-10T07:27:27.638Z,42
2016-11-10T07:28:36.660Z,42.2
2016-11-10T07:29:45.969Z,42.2
2016-11-10T07:30:54.717Z,42.2
2016-11-10T07:32:03.422Z,42.18
2016-11-10T07:33:12.438Z,42.27
2016-11-10T07:34:21.758Z,42.08
2016-11-10T07:35:30.463Z,42.18
2016-11-10T07:36:39.493Z,42.18
2016-11-10T07:37:48.826Z,42.27
2016-11-10T07:38:57.563Z,42.37
2016-11-10T07:40:07.176Z,42.47
2016-11-10T07:41:15.881Z,42.37
2016-11-10T07:42:24.890Z,41.99
2016-11-10T07:43:33.889Z,42.37
2016-11-10T07:44:42.953Z,42.66
2016-11-10T07:45:52.872Z,42.56
2016-11-10T07:47:01.595Z,42.56
2016-11-10T07:48:10.906Z,42.47
2016-11-10T07:49:19.624Z,42.76
2016-11-10T07:50:28.653Z,42.66
2016-11-10T07:51:37.965Z,42.56
2016-11-10T07:52:46.985Z,42.66
2016-11-10T07:53:55.697Z,42.85
2016-11-10T07:55:05.020Z,42.94
2016-11-10T07:56:14.030Z,43.04
2016-11-10T07:57:22.737Z,42.56
2016-11-10T07:58:31.452Z,42.66
2016-11-10T07:59:40.484Z,42.83
2016-11-10T08:00:49.535Z,43.04
2016-11-10T08:01:58.553Z,43.02
2016-11-10T08:03:07.605Z,42.85
2016-11-10T08:04:16.631Z,43.14
2016-11-10T08:05:25.680Z,43.04
2016-11-10T08:06:35.003Z,43.02
2016-11-10T08:07:43.734Z,43.31
2016-11-10T08:08:53.052Z,43.02
2016-11-10T08:10:02.105Z,43.52
2016-11-10T08:11:11.427Z,42.73
2016-11-10T08:12:20.121Z,42.85
2016-11-10T08:13:29.749Z,43.43
2016-11-10T08:14:38.789Z,43.4
2016-11-10T08:15:47.807Z,43.4
2016-11-10T08:16:57.131Z,43.12
2016-11-10T08:18:05.879Z,43.4
2016-11-10T08:19:14.934Z,43.79
2016-11-10T08:20:23.627Z,43.88
2016-11-10T08:21:32.647Z,43.88
2016-11-10T08:22:41.955Z,43.88
2016-11-10T08:23:51.276Z,43.88
2016-11-10T08:25:00.285Z,43.88
2016-11-10T08:26:09.291Z,43.88
2016-11-10T08:27:18.313Z,43.21
2016-11-10T08:28:27.317Z,43.6
2016-11-10T08:29:36.048Z,43.7
2016-11-10T08:30:44.764Z,43.88
2016-11-10T08:31:54.094Z,43.6
2016-11-10T08:33:03.110Z,43.88
2016-11-10T08:34:12.431Z,43.7
2016-11-10T08:35:21.154Z,43.6
2016-11-10T08:36:29.864Z,43.6
2016-11-10T08:37:39.472Z,43.6
2016-11-10T08:38:48.478Z,43.7
2016-11-10T08:39:57.491Z,43.79
2016-11-10T08:41:06.514Z,43.79
2016-11-10T08:42:15.546Z,43.7
2016-11-10T08:43:25.168Z,43.98
2016-11-10T08:44:34.243Z,43.98
2016-11-10T08:45:42.953Z,43.88
2016-11-10T08:46:51.949Z,43.88
2016-11-10T08:48:01.287Z,43.88
2016-11-10T08:49:10.301Z,43.88
2016-11-10T08:50:19.012Z,44.27
2016-11-10T08:51:28.717Z,43.98
2016-11-10T08:52:37.479Z,43.79
2016-11-10T08:53:46.499Z,44.17
2016-11-10T08:54:55.201Z,43.98
2016-11-10T08:56:04.217Z,43.88
2016-11-10T08:57:13.831Z,44.08
2016-11-10T08:58:23.161Z,44.17
2016-11-10T08:59:32.167Z,43.88
2016-11-10T09:00:41.210Z,43.88
2016-11-10T09:01:49.976Z,43.98
2016-11-10T09:02:59.016Z,43.98
2016-11-10T09:04:08.029Z,43.98
2016-11-10T09:05:16.761Z,43.6
2016-11-10T09:06:25.464Z,43.88
2016-11-10T09:07:34.779Z,43.79
2016-11-10T09:08:44.400Z,43.98
2016-11-10T09:09:53.089Z,43.88
2016-11-10T09:11:02.410Z,43.79
2016-11-10T09:12:11.119Z,43.98
2016-11-10T09:13:20.440Z,43.79
2016-11-10T09:14:29.442Z,43.88
2016-11-10T09:15:38.154Z,44.17
2016-11-10T09:16:46.849Z,43.98
2016-11-10T09:17:55.555Z,43.88
2016-11-10T09:19:04.250Z,43.79
2016-11-10T09:20:13.558Z,43.98
2016-11-10T09:21:22.259Z,43.98
2016-11-10T09:22:31.569Z,44.17
2016-11-10T09:23:40.287Z,44.08
2016-11-10T09:24:49.312Z,43.98
2016-11-10T09:25:58.336Z,44.17
2016-11-10T09:27:07.695Z,43.98
2016-11-10T09:28:17.317Z,43.88
2016-11-10T09:29:26.023Z,43.98
2016-11-10T09:30:35.648Z,43.98
2016-11-10T09:31:44.649Z,44.37
2016-11-10T09:32:53.991Z,44.65
2016-11-10T09:34:03.297Z,43.79
2016-11-10T09:35:11.998Z,43.98
2016-11-10T09:36:21.328Z,44.27
2016-11-10T09:37:30.966Z,43.98
2016-11-10T09:38:39.671Z,43.98
2016-11-10T09:39:49.284Z,44.08
2016-11-10T09:40:58.615Z,43.98
2016-11-10T09:42:07.381Z,43.98
2016-11-10T09:43:16.423Z,43.6
2016-11-10T09:44:25.427Z,44.08
2016-11-10T09:45:34.750Z,43.6
2016-11-10T09:46:43.781Z,43.98
2016-11-10T09:47:52.468Z,43.88
2016-11-10T09:49:01.459Z,43.98
2016-11-10T09:50:10.784Z,44.75
2016-11-10T09:51:19.488Z,44.65
2016-11-10T09:52:28.204Z,44.37
2016-11-10T09:53:37.836Z,44.17
2016-11-10T09:54:47.187Z,44.08
2016-11-10T09:55:56.515Z,44.56
2016-11-10T09:57:05.232Z,44.63
2016-11-10T09:58:14.563Z,44.54
2016-11-10T09:59:23.562Z,44.17
2016-11-10T10:00:32.274Z,44.65
2016-11-10T10:01:41.301Z,44.27
2016-11-10T10:02:50.325Z,44.06
2016-11-10T10:03:59.637Z,44.08
2016-11-10T10:05:08.346Z,44.46
2016-11-10T10:06:43.338Z,44.46
2016-11-10T10:07:52.039Z,43.98
2016-11-10T10:09:01.363Z,43.98
2016-11-10T10:10:10.392Z,44.08
2016-11-10T10:11:19.436Z,44.65
2016-11-10T10:12:29.370Z,44.44
2016-11-10T10:13:38.990Z,44.65
2016-11-10T10:14:47.833Z,44.56
2016-11-10T10:15:56.553Z,44.27
2016-11-10T10:17:05.297Z,44.34
2016-11-10T10:18:14.627Z,44.34
2016-11-10T10:19:23.630Z,44.56
2016-11-10T10:20:32.629Z,44.56
2016-11-10T10:21:41.632Z,43.98
2016-11-10T10:22:50.389Z,44.63
2016-11-10T10:23:59.107Z,44.34
2016-11-10T10:25:07.813Z,44.34
2016-11-10T10:26:17.597Z,43.88
2016-11-10T10:27:27.217Z,44.17
2016-11-10T10:28:35.914Z,44.56
2016-11-10T10:29:44.911Z,44.63
2016-11-10T10:30:53.606Z,44.08
2016-11-10T10:32:03.219Z,44.17
2016-11-10T10:33:12.225Z,44.44
2016-11-10T10:34:21.253Z,44.27
2016-11-10T10:35:30.291Z,44.75
2016-11-10T10:36:39.321Z,43.98
2016-11-10T10:37:48.051Z,44.08
2016-11-10T10:38:57.053Z,43.98
2016-11-10T10:40:05.745Z,44.46
2016-11-10T10:41:14.751Z,44.56
2016-11-10T10:42:24.053Z,44.54
2016-11-10T10:43:32.913Z,44.46
2016-11-10T10:44:41.648Z,44.08
2016-11-10T10:45:51.278Z,44.08
2016-11-10T10:47:00.586Z,43.88
2016-11-10T10:48:10.504Z,44.08
2016-11-10T10:49:19.660Z,44.08
2016-11-10T10:50:28.667Z,43.98
2016-11-10T10:51:37.973Z,44.37
2016-11-10T10:52:47.284Z,44.08
2016-11-10T10:53:56.300Z,44.08
2016-11-10T10:55:04.993Z,44.27
2016-11-10T10:56:14.009Z,44.37
2016-11-10T10:57:22.719Z,44.46
2016-11-10T10:58:31.428Z,43.98
2016-11-10T10:59:40.117Z,43.98
2016-11-10T11:00:49.426Z,44.17
2016-11-10T11:01:58.134Z,44.84
2016-11-10T11:03:07.144Z,44.56
2016-11-10T11:04:16.763Z,44.65
2016-11-10T11:05:26.069Z,44.46
2016-11-10T11:06:35.989Z,44.46
2016-11-10T11:07:45.291Z,44.46
2016-11-10T11:08:54.288Z,44.56
2016-11-10T11:10:03.611Z,44.37
2016-11-10T11:13:44.816Z,44.65
2016-11-10T11:14:53.830Z,44.08
2016-11-10T11:16:03.156Z,44.37
2016-11-10T11:17:12.176Z,44.46
2016-11-10T11:18:21.183Z,43.79
2016-11-10T11:19:29.942Z,44.15
2016-11-10T11:20:39.263Z,44.37
2016-11-10T11:21:47.973Z,43.98
2016-11-10T11:22:57.024Z,44.08
2016-11-10T11:24:06.032Z,44.08
2016-11-10T11:25:15.047Z,44.08
2016-11-10T11:26:24.678Z,44.27
2016-11-10T11:27:33.670Z,43.98
2016-11-10T11:28:42.670Z,43.98
2016-11-10T11:29:51.381Z,44.17
2016-11-10T11:31:00.091Z,44.17
2016-11-10T11:32:08.778Z,43.79
2016-11-10T11:33:17.470Z,43.98
2016-11-10T11:34:26.174Z,43.88
2016-11-10T11:35:34.885Z,43.88
2016-11-10T11:36:43.927Z,44.27
2016-11-10T11:37:53.597Z,44.27
2016-11-10T11:39:02.614Z,43.98
2016-11-10T11:40:11.943Z,43.88
2016-11-10T11:41:20.652Z,43.98
2016-11-10T11:42:29.734Z,43.98
2016-11-10T11:43:38.738Z,43.98
2016-11-10T11:44:47.442Z,43.98
2016-11-10T11:45:56.475Z,43.79
2016-11-10T11:47:05.173Z,44.17
2016-11-10T11:48:14.184Z,43.6
2016-11-10T11:49:23.492Z,43.88
2016-11-10T11:50:32.820Z,43.98
2016-11-10T11:51:41.520Z,44.08
2016-11-10T11:52:50.223Z,43.98
2016-11-10T11:53:58.961Z,43.98
2016-11-10T11:55:08.272Z,44.08
2016-11-10T11:56:17.289Z,43.98
2016-11-10T11:57:26.004Z,43.88
2016-11-10T11:58:35.031Z,43.88
2016-11-10T11:59:44.808Z,44.08
2016-11-10T12:00:54.123Z,43.79
2016-11-10T12:02:03.441Z,43.88
2016-11-10T12:03:13.371Z,44.17
2016-11-10T12:04:22.383Z,44.08
2016-11-10T12:05:31.859Z,43.79
2016-11-10T12:06:40.904Z,43.6
2016-11-10T12:07:50.231Z,43.98
2016-11-10T12:08:59.293Z,43.79
2016-11-10T12:10:08.315Z,43.79
2016-11-10T12:11:17.027Z,43.98
2016-11-10T12:12:26.034Z,43.98
2016-11-10T12:13:35.368Z,43.88
2016-11-10T12:14:44.368Z,44.46
2016-11-10T12:15:53.686Z,44.17
2016-11-10T12:17:02.695Z,43.79
2016-11-10T12:18:11.777Z,43.98
2016-11-10T12:19:20.478Z,43.98
2016-11-10T12:20:29.192Z,43.6
2016-11-10T12:21:37.936Z,43.6
2016-11-10T12:22:46.958Z,43.98
2016-11-10T12:23:56.010Z,43.88
2016-11-10T12:25:04.708Z,43.6
2016-11-10T12:26:14.038Z,43.5
2016-11-10T12:27:23.059Z,43.88
2016-11-10T12:28:31.778Z,43.6
2016-11-10T12:29:40.817Z,43.7
2016-11-10T12:30:49.835Z,43.88
2016-11-10T12:31:58.877Z,43.6
2016-11-10T12:33:07.590Z,43.6
2016-11-10T12:34:16.317Z,43.6
2016-11-10T12:35:25.944Z,43.88
2016-11-10T12:36:34.964Z,43.7
2016-11-10T12:37:43.684Z,43.6
2016-11-10T12:38:53.011Z,43.6
2016-11-10T12:40:01.704Z,43.7
2016-11-10T12:41:10.412Z,43.88
2016-11-10T12:42:19.127Z,43.7
2016-11-10T12:43:28.431Z,43.88
2016-11-10T12:44:37.137Z,43.88
2016-11-10T12:45:46.456Z,44.08
2016-11-10T12:46:55.457Z,43.7
2016-11-10T12:48:04.765Z,43.98
2016-11-10T12:49:13.464Z,43.98
2016-11-10T12:50:22.474Z,43.88
2016-11-10T12:51:31.860Z,43.88
2016-11-10T12:52:40.892Z,43.79
2016-11-10T12:53:49.589Z,43.7
2016-11-10T12:54:58.609Z,43.88
2016-11-10T12:56:07.921Z,43.6
2016-11-10T12:57:16.796Z,44.17
2016-11-10T12:58:25.514Z,44.17
2016-11-10T12:59:34.222Z,44.17
2016-11-10T13:00:42.929Z,43.6
2016-11-10T13:01:52.259Z,43.98
2016-11-10T13:03:01.417Z,43.88
2016-11-10T13:04:10.445Z,43.88
2016-11-10T13:05:20.136Z,43.88
2016-11-10T13:06:29.444Z,43.88
2016-11-10T13:07:38.453Z,43.79
2016-11-10T13:08:47.778Z,43.7
2016-11-10T13:09:56.471Z,43.79
2016-11-10T13:11:05.185Z,43.6
2016-11-10T13:12:13.949Z,43.98
2016-11-10T13:13:22.949Z,43.88
2016-11-10T13:14:31.952Z,43.98
2016-11-10T13:15:40.966Z,43.88
2016-11-10T13:16:49.680Z,43.79
2016-11-10T13:17:58.993Z,43.7
2016-11-10T13:19:08.617Z,43.98
2016-11-10T13:20:17.625Z,43.6
2016-11-10T13:21:26.947Z,43.7
2016-11-10T13:22:35.939Z,43.7
2016-11-10T13:23:44.962Z,43.7
2016-11-10T13:24:54.319Z,43.6
2016-11-10T13:26:03.804Z,43.88
2016-11-10T13:27:12.805Z,43.88
2016-11-10T13:28:21.503Z,43.88
2016-11-10T13:29:30.523Z,43.7
2016-11-10T13:30:39.839Z,43.79
2016-11-10T13:31:49.147Z,43.6
2016-11-10T13:32:58.176Z,43.88
2016-11-10T13:34:06.882Z,43.79
2016-11-10T13:35:15.607Z,43.79
2016-11-10T13:36:24.604Z,43.88
2016-11-10T13:37:33.296Z,43.6
2016-11-10T13:38:41.982Z,43.6
2016-11-10T13:39:50.994Z,43.79
2016-11-10T13:41:00.024Z,43.6
2016-11-10T13:42:09.027Z,43.7
2016-11-10T13:43:18.164Z,43.79
2016-11-10T13:44:27.473Z,43.6
2016-11-10T13:45:36.784Z,43.88
2016-11-10T13:46:46.398Z,43.98
2016-11-10T13:47:56.020Z,43.98
2016-11-10T13:49:05.031Z,43.7
2016-11-10T13:50:14.977Z,43.7
2016-11-10T13:51:24.293Z,43.7
2016-11-10T13:52:33.607Z,43.7
2016-11-10T13:53:42.918Z,43.98
2016-11-10T13:54:53.150Z,43.79
2016-11-10T13:56:02.176Z,43.6
2016-11-10T13:57:11.491Z,43.79
2016-11-10T13:58:20.203Z,43.79
2016-11-10T13:59:29.235Z,43.79
2016-11-10T14:00:38.555Z,43.88
2016-11-10T14:01:47.555Z,43.79
2016-11-10T14:02:56.250Z,43.79
2016-11-10T14:04:04.946Z,43.7
2016-11-10T14:05:13.990Z,43.88
2016-11-10T14:06:23.600Z,44.08
2016-11-10T14:07:32.626Z,43.98
2016-11-10T14:08:41.404Z,43.88
2016-11-10T14:09:50.410Z,44.08
2016-11-10T14:10:59.731Z,43.88
2016-11-10T14:12:08.729Z,44.08
2016-11-10T14:13:17.450Z,43.88
2016-11-10T14:14:26.145Z,44.17
2016-11-10T14:15:34.861Z,43.79
2016-11-10T14:16:44.179Z,43.98
2016-11-10T14:17:53.648Z,43.6
2016-11-10T14:19:02.644Z,43.7
2016-11-10T14:20:11.947Z,44.17
2016-11-10T14:21:20.949Z,43.98
2016-11-10T14:22:29.958Z,43.88
2016-11-10T14:23:38.664Z,43.98
2016-11-10T14:24:47.346Z,43.98
2016-11-10T14:25:56.382Z,43.98
2016-11-10T14:27:05.390Z,43.7
2016-11-10T14:28:14.400Z,43.79
2016-11-10T14:29:23.126Z,43.98
2016-11-10T14:30:31.827Z,43.98
2016-11-10T14:31:40.523Z,44.17
2016-11-10T14:32:49.544Z,43.88
2016-11-10T14:33:58.260Z,43.98
2016-11-10T14:35:07.566Z,43.6
2016-11-10T14:36:16.573Z,43.88
2016-11-10T14:37:25.261Z,43.98
2016-11-10T14:38:33.953Z,43.88
2016-11-10T14:39:42.945Z,43.98
2016-11-10T14:40:51.943Z,43.98
2016-11-10T14:42:01.604Z,44.17
2016-11-10T14:43:11.250Z,43.5
2016-11-10T14:44:20.242Z,44.08
2016-11-10T14:45:29.859Z,43.98
2016-11-10T14:46:39.213Z,43.98
2016-11-10T14:47:48.522Z,43.88
2016-11-10T14:48:57.251Z,44.08
2016-11-10T14:50:06.853Z,43.88
2016-11-10T14:51:15.842Z,43.98
2016-11-10T14:52:25.147Z,44.08
2016-11-10T14:53:34.149Z,43.98
2016-11-10T14:54:43.487Z,44.17
2016-11-10T14:55:52.497Z,43.98
2016-11-10T14:57:01.517Z,43.79